createdAt,value
2022-08-29T00:00:19.133Z,12.50
2022-08-29T00:02:50.025Z,10.20
2022-08-29T00:05:19.873Z,9.50
2022-08-29T00:07:53.331Z,10.90
2022-08-29T00:10:23.764Z,11.90
2022-08-29T00:12:51.945Z,10.50
2022-08-29T00:15:21.622Z,10.20
2022-08-29T00:17:49.870Z,10.10
2022-08-29T00:20:30.334Z,10.50
2022-08-29T00:23:03.532Z,9.60
2022-08-29T00:25:33.404Z,11.00
2022-08-29T00:28:01.521Z,10.00
2022-08-29T00:30:30.106Z,9.80
2022-08-29T00:32:58.289Z,9.40
2022-08-29T00:35:29.773Z,9.40
2022-08-29T00:37:59.842Z,9.40
2022-08-29T00:40:34.990Z,9.60
2022-08-29T00:45:33.102Z,11.20
2022-08-29T00:48:07.032Z,9.00
2022-08-29T00:50:40.976Z,9.40
2022-08-29T00:53:13.271Z,9.10
2022-08-29T00:55:42.937Z,11.20
2022-08-29T00:58:27.165Z,10.00
2022-08-29T01:00:55.951Z,9.00
2022-08-29T01:03:24.342Z,8.20
2022-08-29T01:05:53.308Z,8.40
2022-08-29T01:08:21.499Z,8.10
2022-08-29T01:11:08.714Z,10.30
2022-08-29T01:13:42.172Z,9.50
2022-08-29T01:16:11.883Z,8.90
2022-08-29T01:18:43.794Z,8.80
2022-08-29T01:21:21.311Z,9.00
2022-08-29T01:23:59.001Z,8.70
2022-08-29T01:26:30.777Z,8.00
2022-08-29T01:28:59.668Z,7.90
2022-08-29T01:31:51.526Z,8.80
2022-08-29T01:34:28.039Z,7.30
2022-08-29T01:36:59.846Z,8.80
2022-08-29T01:39:34.933Z,9.20
2022-08-29T01:42:11.244Z,8.40
2022-08-29T01:44:41.208Z,7.80
2022-08-29T01:47:11.722Z,7.80
2022-08-29T01:49:41.025Z,8.70
2022-08-29T01:54:36.827Z,7.40
2022-08-29T01:57:08.563Z,7.60
2022-08-29T01:59:39.310Z,9.40
2022-08-29T02:02:15.998Z,8.50
2022-08-29T02:04:45.367Z,7.90
2022-08-29T02:07:13.788Z,10.00
2022-08-29T02:09:45.600Z,8.50
2022-08-29T02:12:14.137Z,8.60
2022-08-29T02:14:42.758Z,8.10
2022-08-29T02:17:11.244Z,9.90
2022-08-29T02:19:40.313Z,8.60
2022-08-29T02:22:09.915Z,7.30
2022-08-29T02:24:37.935Z,8.30
2022-08-29T02:27:09.378Z,7.70
2022-08-29T02:29:38.627Z,7.80
2022-08-29T02:32:09.215Z,9.20
2022-08-29T02:34:38.166Z,8.50
2022-08-29T02:37:07.441Z,8.00
2022-08-29T02:39:35.569Z,8.30
2022-08-29T02:42:03.978Z,9.70
2022-08-29T02:44:33.709Z,8.30
2022-08-29T02:47:01.840Z,7.80
2022-08-29T02:49:30.365Z,9.20
2022-08-29T02:51:58.984Z,8.50
2022-08-29T02:54:27.080Z,7.60
2022-08-29T02:56:55.056Z,8.00
2022-08-29T02:59:23.177Z,7.20
2022-08-29T03:01:53.557Z,9.40
2022-08-29T03:04:21.920Z,9.00
2022-08-29T03:06:50.296Z,8.10
2022-08-29T03:09:18.438Z,7.60
2022-08-29T03:11:46.562Z,8.10
2022-08-29T03:14:14.499Z,9.50
2022-08-29T03:16:44.123Z,8.20
2022-08-29T03:19:13.587Z,8.40
2022-08-29T03:21:42.179Z,7.60
2022-08-29T03:24:10.183Z,7.50
2022-08-29T03:26:38.370Z,9.50
2022-08-29T03:29:06.462Z,7.30
2022-08-29T03:31:35.622Z,8.10
2022-08-29T03:36:34.321Z,7.70
2022-08-29T03:39:02.496Z,8.00
2022-08-29T03:41:31.283Z,9.50
2022-08-29T03:44:00.177Z,7.80
2022-08-29T03:46:28.999Z,8.10
2022-08-29T03:48:57.086Z,8.00
2022-08-29T03:51:29.259Z,7.90
2022-08-29T03:53:59.279Z,8.20
2022-08-29T03:56:28.887Z,8.70
2022-08-29T03:58:58.415Z,9.60
2022-08-29T04:01:29.894Z,8.40
2022-08-29T04:03:59.438Z,7.90
2022-08-29T04:06:28.557Z,7.00
2022-08-29T04:08:58.995Z,8.70
2022-08-29T04:11:28.860Z,7.70
2022-08-29T04:13:56.877Z,8.30
2022-08-29T04:16:30.610Z,8.40
2022-08-29T04:18:59.820Z,7.80
2022-08-29T04:21:28.096Z,8.90
2022-08-29T04:23:56.418Z,7.70
2022-08-29T04:26:41.245Z,8.00
2022-08-29T04:29:12.368Z,8.90
2022-08-29T04:31:41.707Z,9.50
2022-08-29T04:34:12.631Z,7.90
2022-08-29T04:36:45.263Z,8.00
2022-08-29T04:39:14.597Z,7.20
2022-08-29T04:41:44.094Z,8.40
2022-08-29T04:44:13.487Z,7.30
2022-08-29T04:46:41.446Z,8.40
2022-08-29T04:49:09.756Z,8.40
2022-08-29T04:51:37.962Z,8.40
2022-08-29T04:54:06.636Z,8.50
2022-08-29T04:56:35.127Z,8.60
2022-08-29T04:59:04.786Z,9.60
2022-08-29T05:01:33.091Z,8.90
2022-08-29T05:04:01.116Z,9.30
2022-08-29T05:06:29.406Z,8.90
2022-08-29T05:08:59.216Z,8.60
2022-08-29T05:11:29.984Z,10.40
2022-08-29T05:13:59.535Z,9.50
2022-08-29T05:16:30.844Z,9.50
2022-08-29T05:19:00.522Z,10.20
2022-08-29T05:21:35.105Z,11.50
2022-08-29T05:24:07.071Z,9.90
2022-08-29T05:26:39.652Z,11.30
2022-08-29T05:29:10.438Z,10.50
2022-08-29T05:31:42.025Z,10.80
2022-08-29T05:34:32.455Z,10.90
2022-08-29T05:37:01.055Z,10.40
2022-08-29T05:39:29.172Z,11.80
2022-08-29T05:44:27.525Z,10.80
2022-08-29T05:46:58.130Z,10.50
2022-08-29T05:49:27.364Z,10.80
2022-08-29T05:51:56.690Z,11.20
2022-08-29T05:54:30.273Z,12.30
2022-08-29T05:56:58.860Z,12.60
2022-08-29T05:59:26.901Z,12.10
2022-08-29T06:01:54.884Z,12.80
2022-08-29T06:04:24.495Z,12.10
2022-08-29T06:06:52.589Z,13.70
2022-08-29T06:09:20.793Z,12.60
2022-08-29T06:11:53.100Z,13.00
2022-08-29T06:14:22.171Z,14.10
2022-08-29T06:19:18.640Z,13.60
2022-08-29T06:21:48.393Z,14.90
2022-08-29T06:24:17.450Z,14.10
2022-08-29T06:26:45.978Z,13.90
2022-08-29T06:29:16.113Z,14.40
2022-08-29T06:31:44.362Z,15.70
2022-08-29T06:34:12.402Z,14.50
2022-08-29T06:36:40.465Z,15.40
2022-08-29T06:39:12.162Z,15.20
2022-08-29T06:41:41.989Z,14.90
2022-08-29T06:44:11.457Z,15.00
2022-08-29T06:46:43.255Z,15.40
2022-08-29T06:49:14.324Z,15.90
2022-08-29T06:51:46.662Z,15.50
2022-08-29T06:54:17.989Z,16.00
2022-08-29T06:56:46.543Z,16.60
2022-08-29T06:59:14.743Z,16.20
2022-08-29T07:01:43.539Z,16.00
2022-08-29T07:04:14.653Z,15.90
2022-08-29T07:09:13.855Z,17.70
2022-08-29T07:11:44.000Z,17.50
2022-08-29T07:14:13.468Z,18.30
2022-08-29T07:16:42.903Z,18.30
2022-08-29T07:19:11.713Z,18.80
2022-08-29T07:21:40.763Z,19.90
2022-08-29T07:24:08.990Z,20.20
2022-08-29T07:26:42.368Z,20.20
2022-08-29T07:29:16.860Z,20.20
2022-08-29T07:31:44.972Z,19.80
2022-08-29T07:34:13.148Z,20.10
2022-08-29T07:36:41.782Z,19.90
2022-08-29T07:39:13.234Z,20.00
2022-08-29T07:41:42.842Z,20.20
2022-08-29T07:44:14.088Z,20.20
2022-08-29T07:46:43.463Z,19.90
2022-08-29T07:49:12.599Z,19.80
2022-08-29T07:51:44.413Z,19.90
2022-08-29T07:54:16.540Z,19.90
2022-08-29T07:56:44.926Z,20.10
2022-08-29T07:59:14.652Z,20.20
2022-08-29T08:01:42.798Z,20.30
2022-08-29T08:04:11.424Z,19.80
2022-08-29T08:06:41.745Z,19.90
2022-08-29T08:09:11.629Z,20.80
2022-08-29T08:11:41.408Z,20.60
2022-08-29T08:14:10.236Z,20.20
2022-08-29T08:16:44.323Z,20.80
2022-08-29T08:24:19.774Z,22.00
2022-08-29T08:26:49.600Z,21.70
2022-08-29T08:29:18.373Z,23.20
2022-08-29T08:31:50.449Z,22.40
2022-08-29T08:34:19.362Z,22.60
2022-08-29T08:36:47.402Z,23.00
2022-08-29T08:39:15.969Z,23.00
2022-08-29T08:41:55.590Z,23.20
2022-08-29T08:44:56.786Z,22.50
2022-08-29T08:47:33.430Z,23.90
2022-08-29T08:50:10.261Z,22.90
2022-08-29T08:52:46.566Z,23.70
2022-08-29T08:55:30.000Z,24.80
2022-08-29T08:58:10.341Z,24.50
2022-08-29T09:00:46.822Z,23.60
2022-08-29T09:04:04.098Z,23.90
2022-08-29T09:06:56.107Z,24.60
2022-08-29T09:09:36.850Z,24.30
2022-08-29T09:12:20.007Z,24.10
2022-08-29T09:15:01.672Z,24.10
2022-08-29T09:17:37.031Z,24.90
2022-08-29T09:20:11.436Z,24.40
2022-08-29T09:22:41.584Z,24.40
2022-08-29T09:25:13.242Z,24.60
2022-08-29T09:27:41.525Z,24.60
2022-08-29T09:30:15.797Z,24.40
2022-08-29T09:33:02.631Z,24.40
2022-08-29T09:35:40.724Z,25.50
2022-08-29T09:38:11.282Z,24.70
2022-08-29T09:40:52.377Z,25.50
2022-08-29T09:43:27.030Z,25.00
2022-08-29T09:46:16.311Z,24.80
2022-08-29T09:48:47.700Z,26.40
2022-08-29T09:51:26.418Z,25.70
2022-08-29T09:54:10.654Z,26.20
2022-08-29T09:56:41.301Z,26.30
2022-08-29T09:59:20.138Z,26.10
2022-08-29T10:01:48.845Z,26.00
2022-08-29T10:04:38.146Z,25.70
2022-08-29T10:07:18.674Z,25.40
2022-08-29T10:09:58.461Z,25.20
2022-08-29T10:12:36.459Z,24.40
2022-08-29T10:15:23.475Z,25.10
2022-08-29T10:18:24.421Z,24.50
2022-08-29T10:21:07.793Z,24.10
2022-08-29T10:23:48.559Z,23.90
2022-08-29T10:26:30.377Z,24.00
2022-08-29T10:29:10.193Z,24.10
2022-08-29T10:31:46.277Z,23.50
2022-08-29T10:34:35.948Z,23.60
2022-08-29T10:37:15.506Z,23.60
2022-08-29T10:39:59.673Z,24.10
2022-08-29T10:42:32.325Z,24.70
2022-08-29T10:45:16.839Z,24.10
2022-08-29T10:47:54.034Z,24.10
2022-08-29T10:50:44.972Z,24.20
2022-08-29T10:53:20.659Z,24.50
2022-08-29T10:56:03.152Z,25.30
2022-08-29T10:58:47.999Z,25.20
2022-08-29T11:01:22.161Z,25.90
2022-08-29T11:04:04.061Z,25.80
2022-08-29T11:09:20.166Z,25.40
2022-08-29T11:12:04.315Z,25.80
2022-08-29T11:14:39.277Z,26.40
2022-08-29T11:17:11.016Z,26.50
2022-08-29T11:19:55.326Z,26.70
2022-08-29T11:22:27.902Z,26.80
2022-08-29T11:25:06.731Z,26.80
2022-08-29T11:27:47.412Z,27.00
2022-08-29T11:30:21.931Z,26.30
2022-08-29T11:33:04.729Z,27.00
2022-08-29T11:35:45.801Z,27.30
2022-08-29T11:38:49.370Z,26.80
2022-08-29T11:41:31.499Z,26.60
2022-08-29T11:44:18.744Z,26.00
2022-08-29T11:46:53.501Z,25.60
2022-08-29T11:49:38.115Z,25.30
2022-08-29T11:52:30.983Z,25.20
2022-08-29T11:55:25.577Z,24.90
2022-08-29T11:58:07.928Z,24.40
2022-08-29T12:00:52.636Z,24.70
2022-08-29T12:03:47.355Z,24.90
2022-08-29T12:06:51.450Z,25.30
2022-08-29T12:09:47.128Z,26.40
2022-08-29T12:12:20.990Z,27.60
2022-08-29T12:14:52.778Z,29.10
2022-08-29T12:18:01.270Z,29.30
2022-08-29T12:20:42.115Z,30.80
2022-08-29T12:23:22.192Z,31.70
2022-08-29T12:28:48.909Z,30.50
2022-08-29T12:32:02.436Z,30.00
2022-08-29T12:34:57.163Z,30.70
2022-08-29T12:37:45.132Z,31.00
2022-08-29T12:40:42.371Z,28.70
2022-08-29T12:43:26.958Z,28.30
2022-08-29T12:45:56.658Z,29.70
2022-08-29T12:48:32.515Z,29.20
2022-08-29T12:51:02.493Z,29.90
2022-08-29T12:53:34.943Z,29.20
2022-08-29T12:56:15.409Z,29.90
2022-08-29T12:58:47.763Z,30.50
2022-08-29T13:01:27.938Z,29.10
2022-08-29T13:03:59.099Z,27.60
2022-08-29T13:06:29.929Z,27.20
2022-08-29T13:08:58.639Z,27.30
2022-08-29T13:11:30.905Z,28.20
2022-08-29T13:14:11.694Z,28.00
2022-08-29T13:16:41.195Z,29.10
2022-08-29T13:19:20.691Z,29.00
2022-08-29T13:21:50.079Z,28.20
2022-08-29T13:24:21.301Z,27.20
2022-08-29T13:27:03.343Z,27.30
2022-08-29T13:29:38.528Z,27.30
2022-08-29T13:32:19.266Z,27.70
2022-08-29T13:35:17.933Z,27.80
2022-08-29T13:38:10.161Z,28.80
2022-08-29T13:40:46.187Z,28.80
2022-08-29T13:43:34.902Z,29.70
2022-08-29T13:46:08.871Z,30.50
2022-08-29T13:48:40.004Z,30.80
2022-08-29T13:51:08.479Z,30.30
2022-08-29T13:53:37.885Z,30.30
2022-08-29T13:56:21.959Z,30.50
2022-08-29T13:58:51.256Z,30.30
2022-08-29T14:01:30.094Z,29.70
2022-08-29T14:04:10.571Z,28.20
2022-08-29T14:09:22.148Z,28.10
2022-08-29T14:11:50.218Z,28.30
2022-08-29T14:14:18.982Z,28.60
2022-08-29T14:16:47.082Z,28.70
2022-08-29T14:19:15.059Z,29.20
2022-08-29T14:21:43.129Z,29.20
2022-08-29T14:24:11.145Z,29.70
2022-08-29T14:26:41.002Z,30.00
2022-08-29T14:29:09.919Z,30.30
2022-08-29T14:31:38.829Z,31.10
2022-08-29T14:34:07.225Z,30.80
2022-08-29T14:36:37.064Z,31.40
2022-08-29T14:39:11.552Z,31.30
2022-08-29T14:41:42.347Z,30.60
2022-08-29T14:44:10.461Z,29.50
2022-08-29T14:46:49.170Z,27.50
2022-08-29T14:49:18.003Z,26.90
2022-08-29T14:51:46.117Z,26.40
2022-08-29T14:54:16.684Z,26.30
2022-08-29T14:56:49.582Z,26.80
2022-08-29T14:59:18.764Z,27.50
2022-08-29T15:01:52.993Z,28.00
2022-08-29T15:04:35.113Z,28.90
2022-08-29T15:07:04.948Z,28.90
2022-08-29T15:12:03.665Z,30.50
2022-08-29T15:14:34.335Z,31.00
2022-08-29T15:17:02.669Z,31.30
2022-08-29T15:20:10.726Z,30.90
2022-08-29T15:22:19.855Z,30.90
2022-08-29T15:24:50.024Z,31.00
2022-08-29T15:27:24.854Z,31.00
2022-08-29T15:29:55.261Z,31.00
2022-08-29T15:32:23.528Z,31.50
2022-08-29T15:34:51.994Z,31.00
2022-08-29T15:37:20.057Z,30.90
2022-08-29T15:39:50.104Z,30.60
2022-08-29T15:42:30.442Z,30.40
2022-08-29T15:45:02.310Z,30.20
2022-08-29T15:47:30.832Z,30.10
2022-08-29T15:50:00.968Z,29.90
2022-08-29T15:52:31.163Z,29.70
2022-08-29T15:54:59.436Z,29.60
2022-08-29T15:57:28.824Z,30.30
2022-08-29T15:59:58.420Z,29.70
2022-08-29T16:02:26.952Z,29.60
2022-08-29T16:04:57.322Z,29.60
2022-08-29T16:07:29.233Z,29.50
2022-08-29T16:09:59.646Z,29.10
2022-08-29T16:12:31.078Z,28.50
2022-08-29T16:15:01.082Z,27.70
2022-08-29T16:17:31.337Z,27.10
2022-08-29T16:20:01.427Z,26.50
2022-08-29T16:22:30.937Z,24.80
2022-08-29T16:24:59.205Z,25.40
2022-08-29T16:27:28.901Z,24.90
2022-08-29T16:29:57.960Z,25.20
2022-08-29T16:32:26.014Z,24.70
2022-08-29T16:34:54.418Z,24.60
2022-08-29T16:37:22.547Z,24.60
2022-08-29T16:39:50.565Z,23.80
2022-08-29T16:42:18.733Z,23.20
2022-08-29T16:44:48.055Z,23.10
2022-08-29T16:47:16.107Z,23.00
2022-08-29T16:49:44.328Z,23.00
2022-08-29T16:52:12.394Z,23.00
2022-08-29T16:54:40.510Z,22.80
2022-08-29T16:57:08.537Z,22.80
2022-08-29T17:02:07.392Z,22.50
2022-08-29T17:04:35.642Z,22.40
2022-08-29T17:07:03.758Z,22.60
2022-08-29T17:09:30.982Z,22.80
2022-08-29T17:11:59.229Z,22.60
2022-08-29T17:16:57.684Z,22.60
2022-08-29T17:19:27.460Z,22.80
2022-08-29T17:21:55.477Z,22.60
2022-08-29T17:26:52.980Z,22.80
2022-08-29T17:29:21.129Z,22.60
2022-08-29T17:31:49.454Z,22.00
2022-08-29T17:34:17.968Z,22.10
2022-08-29T17:36:47.347Z,22.10
2022-08-29T17:39:15.376Z,21.80
2022-08-29T17:41:44.490Z,21.70
2022-08-29T17:46:42.179Z,21.70
2022-08-29T17:49:11.335Z,21.90
2022-08-29T17:51:40.294Z,21.80
2022-08-29T17:54:12.618Z,21.60
2022-08-29T17:56:46.538Z,21.20
2022-08-29T17:59:15.730Z,21.20
2022-08-29T18:01:44.482Z,21.00
2022-08-29T18:04:13.212Z,20.80
2022-08-29T18:06:41.899Z,20.70
2022-08-29T18:09:11.778Z,20.50
2022-08-29T18:11:41.636Z,20.60
2022-08-29T18:14:10.772Z,20.60
2022-08-29T18:16:38.910Z,20.10
2022-08-29T18:19:07.608Z,20.30
2022-08-29T18:21:36.356Z,20.10
2022-08-29T18:24:06.867Z,19.60
2022-08-29T18:26:36.391Z,19.40
2022-08-29T18:29:04.407Z,19.60
2022-08-29T18:31:32.645Z,19.60
2022-08-29T18:34:01.794Z,18.70
2022-08-29T18:36:30.492Z,19.10
2022-08-29T18:41:27.931Z,18.50
2022-08-29T18:43:58.881Z,18.80
2022-08-29T18:46:27.515Z,18.80
2022-08-29T18:48:55.523Z,18.60
2022-08-29T18:51:23.979Z,18.60
2022-08-29T18:56:20.848Z,18.20
2022-08-29T18:58:54.848Z,18.20
2022-08-29T19:01:32.185Z,18.00
2022-08-29T19:04:02.299Z,18.00
2022-08-29T19:06:30.567Z,18.10
2022-08-29T19:08:59.846Z,17.40
2022-08-29T19:11:28.237Z,17.50
2022-08-29T19:13:56.606Z,17.40
2022-08-29T19:16:25.427Z,17.30
2022-08-29T19:18:54.800Z,17.30
2022-08-29T19:21:21.916Z,17.20
2022-08-29T19:23:53.266Z,16.60
2022-08-29T19:26:28.470Z,17.10
2022-08-29T19:29:00.740Z,17.10
2022-08-29T19:31:29.388Z,16.70
2022-08-29T19:33:59.403Z,16.30
2022-08-29T19:36:27.661Z,16.40
2022-08-29T19:38:55.665Z,16.40
2022-08-29T19:41:25.188Z,16.50
2022-08-29T19:43:54.105Z,16.60
2022-08-29T19:46:24.743Z,16.20
2022-08-29T19:48:53.326Z,16.50
2022-08-29T19:51:25.585Z,17.00
2022-08-29T19:53:56.552Z,16.50
2022-08-29T19:56:26.462Z,16.20
2022-08-29T19:58:55.071Z,16.10
2022-08-29T20:01:23.561Z,15.90
2022-08-29T20:03:52.201Z,16.70
2022-08-29T20:06:21.987Z,16.00
2022-08-29T20:08:50.153Z,16.40
2022-08-29T20:11:21.060Z,15.60
2022-08-29T20:13:51.664Z,16.50
2022-08-29T20:16:23.826Z,16.00
2022-08-29T20:18:52.910Z,16.50
2022-08-29T20:21:24.570Z,16.70
2022-08-29T20:23:57.778Z,16.80
2022-08-29T20:26:28.452Z,16.70
2022-08-29T20:28:58.333Z,16.70
2022-08-29T20:31:26.446Z,17.00
2022-08-29T20:33:54.759Z,17.00
2022-08-29T20:36:41.924Z,17.00
2022-08-29T20:39:11.568Z,17.00
2022-08-29T20:41:39.515Z,17.00
2022-08-29T20:44:09.830Z,17.10
2022-08-29T20:46:42.243Z,17.10
2022-08-29T20:49:11.284Z,17.20
2022-08-29T20:51:43.940Z,17.40
2022-08-29T20:54:13.063Z,17.20
2022-08-29T20:56:41.111Z,17.20
2022-08-29T20:59:10.347Z,17.30
2022-08-29T21:01:40.177Z,17.30
2022-08-29T21:04:26.071Z,17.30
2022-08-29T21:06:56.348Z,17.70
2022-08-29T21:09:24.409Z,17.20
2022-08-29T21:11:52.651Z,17.50
2022-08-29T21:14:22.353Z,17.20
2022-08-29T21:16:50.937Z,17.10
2022-08-29T21:19:19.135Z,17.20
2022-08-29T21:21:47.373Z,17.10
2022-08-29T21:24:16.593Z,17.20
2022-08-29T21:26:45.781Z,17.20
2022-08-29T21:29:13.776Z,17.20
2022-08-29T21:31:41.913Z,18.10
2022-08-29T21:34:11.311Z,17.20
2022-08-29T21:36:41.309Z,17.10
2022-08-29T21:39:11.080Z,17.10
2022-08-29T21:41:42.088Z,17.10
2022-08-29T21:44:11.014Z,17.00
2022-08-29T21:46:42.925Z,17.00
2022-08-29T21:49:13.692Z,16.90
2022-08-29T21:51:41.764Z,16.90
2022-08-29T21:54:13.397Z,16.90
2022-08-29T21:56:43.772Z,16.70
2022-08-29T21:59:12.916Z,16.50
2022-08-29T22:01:43.726Z,16.80
2022-08-29T22:04:19.354Z,16.90
2022-08-29T22:06:57.906Z,16.60
2022-08-29T22:09:26.493Z,17.10
2022-08-29T22:11:56.526Z,16.70
2022-08-29T22:14:45.656Z,16.50
2022-08-29T22:17:13.653Z,16.60
2022-08-29T22:19:41.855Z,16.50
2022-08-29T22:22:10.206Z,16.70
2022-08-29T22:27:08.553Z,16.60
2022-08-29T22:29:37.455Z,16.30
2022-08-29T22:32:06.147Z,16.60
2022-08-29T22:34:34.649Z,16.50
2022-08-29T22:37:02.906Z,16.40
2022-08-29T22:39:31.014Z,16.30
2022-08-29T22:41:58.989Z,16.30
2022-08-29T22:45:02.654Z,16.00
2022-08-29T22:47:18.690Z,15.90
2022-08-29T22:49:46.902Z,16.10
2022-08-29T22:52:15.106Z,16.40
2022-08-29T22:54:43.096Z,16.10
2022-08-29T22:57:14.582Z,15.60
2022-08-29T22:59:45.041Z,16.00
2022-08-29T23:02:13.950Z,16.00
2022-08-29T23:04:42.662Z,15.70
2022-08-29T23:07:12.123Z,15.90
2022-08-29T23:09:41.973Z,15.80
2022-08-29T23:12:12.089Z,15.40
2022-08-29T23:14:43.714Z,15.80
2022-08-29T23:17:11.751Z,15.40
2022-08-29T23:19:41.064Z,15.60
2022-08-29T23:22:11.086Z,15.30
2022-08-29T23:24:41.347Z,15.30
2022-08-29T23:27:21.966Z,15.80
2022-08-29T23:29:52.723Z,14.70
2022-08-29T23:32:21.099Z,15.50
2022-08-29T23:34:49.369Z,16.00
2022-08-29T23:37:17.369Z,15.10
2022-08-29T23:39:46.146Z,14.80
2022-08-29T23:42:14.410Z,15.40
2022-08-29T23:44:42.493Z,15.60
2022-08-29T23:47:11.796Z,15.50
2022-08-29T23:49:39.780Z,15.50
2022-08-29T23:52:07.754Z,15.20
2022-08-29T23:54:36.766Z,14.90
2022-08-29T23:57:05.320Z,15.10
2022-08-29T23:59:52.509Z,15.40
